sensor_id;sensor_type;location;lat;lon;timestamp;pressure;altitude;pressure_sealevel;temperature;humidity
66479;BME280;53294;47.912;13.526;2023-06-01T00:00:50;96235.47;;;18.04;45.64
66479;BME280;53294;47.912;13.526;2023-06-01T00:03:18;96237.72;;;17.77;48.31
66479;BME280;53294;47.912;13.526;2023-06-01T00:05:45;96236.38;;;17.84;46.68
66479;BME280;53294;47.912;13.526;2023-06-01T00:08:11;96235.47;;;17.80;46.29
66479;BME280;53294;47.912;13.526;2023-06-01T00:10:38;96234.19;;;17.52;48.06
66479;BME280;53294;47.912;13.526;2023-06-01T00:13:04;96239.75;;;17.31;48.96
66479;BME280;53294;47.912;13.526;2023-06-01T00:15:31;96247.25;;;17.01;51.40
66479;BME280;53294;47.912;13.526;2023-06-01T00:17:58;96239.50;;;17.24;48.73
66479;BME280;53294;47.912;13.526;2023-06-01T00:20:27;96242.13;;;17.33;49.16
66479;BME280;53294;47.912;13.526;2023-06-01T00:22:55;96239.28;;;17.41;47.40
66479;BME280;53294;47.912;13.526;2023-06-01T00:25:22;96242.91;;;17.33;47.65
66479;BME280;53294;47.912;13.526;2023-06-01T00:27:48;96235.88;;;17.32;47.59
66479;BME280;53294;47.912;13.526;2023-06-01T00:30:15;96234.31;;;17.31;47.41
66479;BME280;53294;47.912;13.526;2023-06-01T00:32:41;96245.16;;;17.31;47.32
66479;BME280;53294;47.912;13.526;2023-06-01T00:35:08;96242.44;;;17.19;48.45
66479;BME280;53294;47.912;13.526;2023-06-01T00:37:35;96236.28;;;16.97;50.21
66479;BME280;53294;47.912;13.526;2023-06-01T00:40:01;96229.63;;;16.74;50.15
66479;BME280;53294;47.912;13.526;2023-06-01T00:42:28;96235.13;;;16.86;48.91
66479;BME280;53294;47.912;13.526;2023-06-01T00:44:55;96230.00;;;16.84;48.94
66479;BME280;53294;47.912;13.526;2023-06-01T00:47:21;96232.84;;;16.88;48.55
66479;BME280;53294;47.912;13.526;2023-06-01T00:49:48;96241.44;;;16.90;48.60
66479;BME280;53294;47.912;13.526;2023-06-01T00:52:15;96228.84;;;16.85;48.78
66479;BME280;53294;47.912;13.526;2023-06-01T00:54:41;96229.97;;;16.51;50.67
66479;BME280;53294;47.912;13.526;2023-06-01T00:57:08;96239.31;;;16.41;50.77
66479;BME280;53294;47.912;13.526;2023-06-01T00:59:34;96233.94;;;16.32;52.95
66479;BME280;53294;47.912;13.526;2023-06-01T01:02:02;96238.25;;;16.33;50.37
66479;BME280;53294;47.912;13.526;2023-06-01T01:04:30;96231.44;;;16.27;50.57
66479;BME280;53294;47.912;13.526;2023-06-01T01:07:06;96232.09;;;16.24;51.21
66479;BME280;53294;47.912;13.526;2023-06-01T01:09:39;96238.31;;;16.25;52.26
66479;BME280;53294;47.912;13.526;2023-06-01T01:12:14;96233.81;;;16.29;51.64
66479;BME280;53294;47.912;13.526;2023-06-01T01:14:53;96237.09;;;15.92;53.12
66479;BME280;53294;47.912;13.526;2023-06-01T01:17:24;96238.56;;;16.11;51.85
66479;BME280;53294;47.912;13.526;2023-06-01T01:20:36;96232.50;;;16.14;52.36
66479;BME280;53294;47.912;13.526;2023-06-01T01:30:45;96232.63;;;16.39;49.61
66479;BME280;53294;47.912;13.526;2023-06-01T01:33:12;96227.63;;;16.28;50.03
66479;BME280;53294;47.912;13.526;2023-06-01T01:35:39;96224.44;;;16.26;51.23
66479;BME280;53294;47.912;13.526;2023-06-01T01:38:07;96224.69;;;16.33;49.86
66479;BME280;53294;47.912;13.526;2023-06-01T01:40:34;96229.78;;;16.35;50.04
66479;BME280;53294;47.912;13.526;2023-06-01T01:43:00;96226.81;;;16.07;51.63
66479;BME280;53294;47.912;13.526;2023-06-01T01:45:27;96224.44;;;16.26;50.04
66479;BME280;53294;47.912;13.526;2023-06-01T01:50:22;96224.59;;;16.30;49.35
66479;BME280;53294;47.912;13.526;2023-06-01T01:52:51;96219.88;;;16.18;50.37
66479;BME280;53294;47.912;13.526;2023-06-01T01:55:18;96215.19;;;16.27;49.46
66479;BME280;53294;47.912;13.526;2023-06-01T01:57:50;96223.00;;;16.29;48.77
66479;BME280;53294;47.912;13.526;2023-06-01T02:00:18;96219.34;;;16.25;48.61
66479;BME280;53294;47.912;13.526;2023-06-01T02:02:45;96216.50;;;16.21;48.46
66479;BME280;53294;47.912;13.526;2023-06-01T02:05:12;96211.34;;;16.07;49.59
66479;BME280;53294;47.912;13.526;2023-06-01T02:07:38;96209.09;;;15.88;50.96
66479;BME280;53294;47.912;13.526;2023-06-01T02:10:05;96210.16;;;15.96;49.28
66479;BME280;53294;47.912;13.526;2023-06-01T02:12:32;96208.75;;;15.90;49.86
66479;BME280;53294;47.912;13.526;2023-06-01T02:14:58;96207.81;;;15.86;49.97
66479;BME280;53294;47.912;13.526;2023-06-01T02:17:25;96209.94;;;15.80;50.36
66479;BME280;53294;47.912;13.526;2023-06-01T02:19:53;96207.25;;;15.71;50.33
66479;BME280;53294;47.912;13.526;2023-06-01T02:22:19;96220.28;;;15.78;49.74
66479;BME280;53294;47.912;13.526;2023-06-01T02:24:46;96210.09;;;15.75;49.95
66479;BME280;53294;47.912;13.526;2023-06-01T02:27:13;96206.13;;;15.72;49.74
66479;BME280;53294;47.912;13.526;2023-06-01T02:29:40;96207.50;;;15.57;50.44
66479;BME280;53294;47.912;13.526;2023-06-01T02:32:07;96202.06;;;15.57;50.82
66479;BME280;53294;47.912;13.526;2023-06-01T02:34:33;96206.84;;;15.60;49.55
66479;BME280;53294;47.912;13.526;2023-06-01T02:37:02;96205.75;;;15.53;50.73
66479;BME280;53294;47.912;13.526;2023-06-01T02:39:29;96203.41;;;15.42;51.43
66479;BME280;53294;47.912;13.526;2023-06-01T02:41:55;96205.53;;;15.37;50.55
66479;BME280;53294;47.912;13.526;2023-06-01T02:44:22;96202.50;;;15.38;50.50
66479;BME280;53294;47.912;13.526;2023-06-01T02:46:48;96209.25;;;15.15;51.65
66479;BME280;53294;47.912;13.526;2023-06-01T02:49:15;96212.47;;;15.08;52.52
66479;BME280;53294;47.912;13.526;2023-06-01T02:51:41;96209.22;;;15.23;51.03
66479;BME280;53294;47.912;13.526;2023-06-01T02:54:08;96208.78;;;15.21;51.84
66479;BME280;53294;47.912;13.526;2023-06-01T02:56:34;96215.94;;;15.17;51.53
66479;BME280;53294;47.912;13.526;2023-06-01T02:59:01;96213.03;;;15.22;50.99
66479;BME280;53294;47.912;13.526;2023-06-01T03:01:29;96209.88;;;15.20;51.44
66479;BME280;53294;47.912;13.526;2023-06-01T03:04:02;96208.31;;;15.11;51.25
66479;BME280;53294;47.912;13.526;2023-06-01T03:06:30;96212.66;;;15.03;51.70
66479;BME280;53294;47.912;13.526;2023-06-01T03:08:58;96211.69;;;14.99;52.07
66479;BME280;53294;47.912;13.526;2023-06-01T03:11:24;96207.75;;;14.79;53.19
66479;BME280;53294;47.912;13.526;2023-06-01T03:13:51;96210.03;;;14.33;57.49
66479;BME280;53294;47.912;13.526;2023-06-01T03:16:18;96205.88;;;14.44;54.99
66479;BME280;53294;47.912;13.526;2023-06-01T03:18:44;96210.63;;;14.82;52.97
66479;BME280;53294;47.912;13.526;2023-06-01T03:21:11;96212.97;;;14.93;52.38
66479;BME280;53294;47.912;13.526;2023-06-01T03:23:38;96213.81;;;14.84;53.03
66479;BME280;53294;47.912;13.526;2023-06-01T03:26:10;96208.22;;;14.98;52.10
66479;BME280;53294;47.912;13.526;2023-06-01T03:28:39;96217.97;;;14.73;54.53
66479;BME280;53294;47.912;13.526;2023-06-01T03:31:05;96218.28;;;14.71;53.50
66479;BME280;53294;47.912;13.526;2023-06-01T03:33:33;96225.13;;;14.51;54.47
66479;BME280;53294;47.912;13.526;2023-06-01T03:36:00;96230.22;;;14.62;53.94
66479;BME280;53294;47.912;13.526;2023-06-01T03:38:27;96224.97;;;14.65;52.71
66479;BME280;53294;47.912;13.526;2023-06-01T03:40:54;96226.06;;;14.55;54.26
66479;BME280;53294;47.912;13.526;2023-06-01T03:43:21;96220.03;;;14.41;55.06
66479;BME280;53294;47.912;13.526;2023-06-01T03:45:47;96221.94;;;14.32;56.86
66479;BME280;53294;47.912;13.526;2023-06-01T03:48:14;96223.69;;;14.63;53.85
66479;BME280;53294;47.912;13.526;2023-06-01T03:50:41;96223.97;;;14.87;53.21
66479;BME280;53294;47.912;13.526;2023-06-01T03:53:07;96225.09;;;14.86;53.67
66479;BME280;53294;47.912;13.526;2023-06-01T03:55:34;96218.25;;;14.80;54.09
66479;BME280;53294;47.912;13.526;2023-06-01T03:58:02;96222.09;;;14.79;53.62
66479;BME280;53294;47.912;13.526;2023-06-01T04:00:29;96227.00;;;14.95;52.83
66479;BME280;53294;47.912;13.526;2023-06-01T04:02:56;96216.47;;;15.02;52.31
66479;BME280;53294;47.912;13.526;2023-06-01T04:05:24;96215.63;;;15.10;52.13
66479;BME280;53294;47.912;13.526;2023-06-01T04:07:51;96220.56;;;15.08;52.21
66479;BME280;53294;47.912;13.526;2023-06-01T04:10:18;96229.38;;;14.96;53.35
66479;BME280;53294;47.912;13.526;2023-06-01T04:12:46;96212.44;;;15.17;52.29
66479;BME280;53294;47.912;13.526;2023-06-01T04:15:13;96214.34;;;15.16;52.79
66479;BME280;53294;47.912;13.526;2023-06-01T04:17:41;96216.25;;;15.24;52.43
66479;BME280;53294;47.912;13.526;2023-06-01T04:20:09;96222.44;;;15.25;52.51
66479;BME280;53294;47.912;13.526;2023-06-01T04:22:37;96217.25;;;15.41;51.97
66479;BME280;53294;47.912;13.526;2023-06-01T04:25:05;96212.34;;;15.43;51.61
66479;BME280;53294;47.912;13.526;2023-06-01T04:27:32;96213.25;;;15.47;51.41
66479;BME280;53294;47.912;13.526;2023-06-01T04:29:58;96214.66;;;15.53;51.49
66479;BME280;53294;47.912;13.526;2023-06-01T04:32:25;96211.63;;;15.55;51.77
66479;BME280;53294;47.912;13.526;2023-06-01T04:34:54;96213.44;;;15.03;56.92
66479;BME280;53294;47.912;13.526;2023-06-01T04:37:23;96209.69;;;15.25;54.58
66479;BME280;53294;47.912;13.526;2023-06-01T04:39:50;96215.03;;;15.04;57.85
66479;BME280;53294;47.912;13.526;2023-06-01T04:42:17;96209.63;;;15.43;54.50
66479;BME280;53294;47.912;13.526;2023-06-01T04:44:45;96215.88;;;14.87;59.19
66479;BME280;53294;47.912;13.526;2023-06-01T04:47:16;96214.47;;;14.72;59.73
66479;BME280;53294;47.912;13.526;2023-06-01T04:49:47;96217.84;;;14.61;59.44
66479;BME280;53294;47.912;13.526;2023-06-01T04:52:14;96210.84;;;15.16;56.64
66479;BME280;53294;47.912;13.526;2023-06-01T04:54:40;96217.31;;;15.32;56.91
66479;BME280;53294;47.912;13.526;2023-06-01T04:57:07;96218.34;;;15.49;56.09
66479;BME280;53294;47.912;13.526;2023-06-01T04:59:33;96218.78;;;15.59;57.05
66479;BME280;53294;47.912;13.526;2023-06-01T05:02:00;96218.72;;;15.77;56.33
66479;BME280;53294;47.912;13.526;2023-06-01T05:04:27;96216.56;;;15.91;55.05
66479;BME280;53294;47.912;13.526;2023-06-01T05:06:53;96222.97;;;16.08;55.07
66479;BME280;53294;47.912;13.526;2023-06-01T05:09:20;96219.22;;;16.21;54.29
66479;BME280;53294;47.912;13.526;2023-06-01T05:11:47;96226.50;;;16.08;55.92
66479;BME280;53294;47.912;13.526;2023-06-01T05:14:14;96220.91;;;15.75;59.69
66479;BME280;53294;47.912;13.526;2023-06-01T05:16:40;96221.84;;;16.09;57.29
66479;BME280;53294;47.912;13.526;2023-06-01T05:19:07;96217.25;;;15.79;58.78
66479;BME280;53294;47.912;13.526;2023-06-01T05:21:33;96226.72;;;15.65;59.26
66479;BME280;53294;47.912;13.526;2023-06-01T05:24:00;96219.44;;;16.16;56.61
66479;BME280;53294;47.912;13.526;2023-06-01T05:26:27;96214.66;;;16.13;57.29
66479;BME280;53294;47.912;13.526;2023-06-01T05:28:53;96216.63;;;16.46;56.63
66479;BME280;53294;47.912;13.526;2023-06-01T05:31:20;96213.97;;;16.58;56.85
66479;BME280;53294;47.912;13.526;2023-06-01T05:33:48;96209.75;;;16.48;57.78
66479;BME280;53294;47.912;13.526;2023-06-01T05:36:14;96213.47;;;16.23;59.24
66479;BME280;53294;47.912;13.526;2023-06-01T05:38:41;96209.56;;;16.32;59.27
66479;BME280;53294;47.912;13.526;2023-06-01T05:41:08;96211.38;;;16.28;58.88
66479;BME280;53294;47.912;13.526;2023-06-01T05:43:35;96214.38;;;16.06;60.31
66479;BME280;53294;47.912;13.526;2023-06-01T05:46:02;96206.84;;;16.32;59.14
66479;BME280;53294;47.912;13.526;2023-06-01T05:48:29;96207.31;;;16.13;59.89
66479;BME280;53294;47.912;13.526;2023-06-01T05:50:55;96209.09;;;16.09;60.36
66479;BME280;53294;47.912;13.526;2023-06-01T05:53:22;96210.41;;;15.82;61.83
66479;BME280;53294;47.912;13.526;2023-06-01T05:55:51;96214.25;;;16.23;60.28
66479;BME280;53294;47.912;13.526;2023-06-01T05:58:18;96206.59;;;16.25;60.39
66479;BME280;53294;47.912;13.526;2023-06-01T06:00:44;96208.09;;;16.35;60.23
66479;BME280;53294;47.912;13.526;2023-06-01T06:03:11;96201.97;;;16.59;60.14
66479;BME280;53294;47.912;13.526;2023-06-01T06:05:38;96213.13;;;16.79;59.68
66479;BME280;53294;47.912;13.526;2023-06-01T06:08:05;96204.31;;;17.03;58.80
66479;BME280;53294;47.912;13.526;2023-06-01T06:10:31;96202.84;;;17.18;57.90
66479;BME280;53294;47.912;13.526;2023-06-01T06:12:58;96204.47;;;17.44;57.07
66479;BME280;53294;47.912;13.526;2023-06-01T06:15:24;96205.69;;;17.46;57.13
66479;BME280;53294;47.912;13.526;2023-06-01T06:17:51;96211.00;;;17.55;57.19
66479;BME280;53294;47.912;13.526;2023-06-01T06:20:17;96207.63;;;17.70;56.99
66479;BME280;53294;47.912;13.526;2023-06-01T06:22:51;96208.53;;;17.87;56.09
66479;BME280;53294;47.912;13.526;2023-06-01T06:25:18;96219.59;;;17.82;56.00
66479;BME280;53294;47.912;13.526;2023-06-01T06:27:44;96217.03;;;17.61;56.99
66479;BME280;53294;47.912;13.526;2023-06-01T06:30:12;96212.13;;;17.66;56.53
66479;BME280;53294;47.912;13.526;2023-06-01T06:32:39;96220.53;;;17.61;57.09
66479;BME280;53294;47.912;13.526;2023-06-01T06:35:05;96221.19;;;17.58;57.31
66479;BME280;53294;47.912;13.526;2023-06-01T06:37:32;96218.72;;;17.77;55.67
66479;BME280;53294;47.912;13.526;2023-06-01T06:39:59;96220.44;;;17.94;55.30
66479;BME280;53294;47.912;13.526;2023-06-01T06:42:25;96219.59;;;18.06;55.35
66479;BME280;53294;47.912;13.526;2023-06-01T06:44:52;96213.41;;;18.34;54.33
66479;BME280;53294;47.912;13.526;2023-06-01T06:47:18;96205.91;;;18.43;54.79
66479;BME280;53294;47.912;13.526;2023-06-01T06:49:46;96205.47;;;18.70;53.93
66479;BME280;53294;47.912;13.526;2023-06-01T06:52:13;96214.41;;;18.70;53.50
66479;BME280;53294;47.912;13.526;2023-06-01T06:54:40;96208.38;;;18.48;54.36
66479;BME280;53294;47.912;13.526;2023-06-01T06:57:07;96204.91;;;18.64;54.98
66479;BME280;53294;47.912;13.526;2023-06-01T06:59:34;96203.88;;;18.69;54.18
66479;BME280;53294;47.912;13.526;2023-06-01T07:02:01;96208.59;;;18.56;53.88
66479;BME280;53294;47.912;13.526;2023-06-01T07:04:28;96209.78;;;18.71;54.42
66479;BME280;53294;47.912;13.526;2023-06-01T07:06:55;96215.72;;;18.89;54.25
66479;BME280;53294;47.912;13.526;2023-06-01T07:09:22;96207.28;;;18.94;54.48
66479;BME280;53294;47.912;13.526;2023-06-01T07:11:48;96199.09;;;19.38;53.26
66479;BME280;53294;47.912;13.526;2023-06-01T07:14:15;96199.56;;;19.91;52.04
66479;BME280;53294;47.912;13.526;2023-06-01T07:16:41;96200.13;;;20.17;51.43
66479;BME280;53294;47.912;13.526;2023-06-01T07:19:08;96199.47;;;20.23;50.44
66479;BME280;53294;47.912;13.526;2023-06-01T07:21:35;96196.97;;;20.54;50.34
66479;BME280;53294;47.912;13.526;2023-06-01T07:24:03;96191.28;;;20.62;50.21
66479;BME280;53294;47.912;13.526;2023-06-01T07:26:30;96189.31;;;20.79;50.40
66479;BME280;53294;47.912;13.526;2023-06-01T07:28:57;96187.84;;;20.26;50.29
66479;BME280;53294;47.912;13.526;2023-06-01T07:31:23;96194.44;;;20.25;51.91
66479;BME280;53294;47.912;13.526;2023-06-01T07:33:50;96196.16;;;20.14;51.30
66479;BME280;53294;47.912;13.526;2023-06-01T07:36:18;96193.31;;;20.26;51.89
66479;BME280;53294;47.912;13.526;2023-06-01T07:38:45;96191.00;;;20.29;51.95
66479;BME280;53294;47.912;13.526;2023-06-01T07:41:12;96196.03;;;20.26;51.34
66479;BME280;53294;47.912;13.526;2023-06-01T07:43:38;96189.16;;;20.33;51.43
66479;BME280;53294;47.912;13.526;2023-06-01T07:46:05;96191.00;;;20.09;52.59
66479;BME280;53294;47.912;13.526;2023-06-01T07:48:32;96183.97;;;20.47;52.07
66479;BME280;53294;47.912;13.526;2023-06-01T07:51:05;96181.75;;;20.72;50.18
66479;BME280;53294;47.912;13.526;2023-06-01T07:53:33;96191.88;;;20.72;50.97
66479;BME280;53294;47.912;13.526;2023-06-01T07:55:59;96186.84;;;20.93;50.58
66479;BME280;53294;47.912;13.526;2023-06-01T07:58:26;96182.16;;;21.40;48.81
66479;BME280;53294;47.912;13.526;2023-06-01T08:00:53;96188.84;;;21.20;50.14
66479;BME280;53294;47.912;13.526;2023-06-01T08:03:19;96180.09;;;21.33;49.39
66479;BME280;53294;47.912;13.526;2023-06-01T08:05:48;96180.03;;;21.53;49.32
66479;BME280;53294;47.912;13.526;2023-06-01T08:08:15;96175.06;;;21.36;48.48
66479;BME280;53294;47.912;13.526;2023-06-01T08:10:42;96183.56;;;21.30;49.65
66479;BME280;53294;47.912;13.526;2023-06-01T08:13:08;96173.91;;;21.13;48.98
66479;BME280;53294;47.912;13.526;2023-06-01T08:15:35;96177.19;;;21.23;47.99
66479;BME280;53294;47.912;13.526;2023-06-01T08:18:04;96181.13;;;21.25;48.67
66479;BME280;53294;47.912;13.526;2023-06-01T08:20:30;96168.25;;;21.72;47.24
66479;BME280;53294;47.912;13.526;2023-06-01T08:22:57;96169.63;;;21.89;47.44
66479;BME280;53294;47.912;13.526;2023-06-01T08:25:24;96160.69;;;22.19;46.63
66479;BME280;53294;47.912;13.526;2023-06-01T08:27:51;96166.56;;;22.51;45.32
66479;BME280;53294;47.912;13.526;2023-06-01T08:30:17;96174.91;;;21.75;47.43
66479;BME280;53294;47.912;13.526;2023-06-01T08:32:44;96168.50;;;21.63;49.39
66479;BME280;53294;47.912;13.526;2023-06-01T08:35:11;96169.00;;;21.46;47.06
66479;BME280;53294;47.912;13.526;2023-06-01T08:37:37;96171.22;;;21.40;47.88
66479;BME280;53294;47.912;13.526;2023-06-01T08:40:04;96168.13;;;21.42;48.50
66479;BME280;53294;47.912;13.526;2023-06-01T08:42:51;96158.47;;;21.48;48.73
66479;BME280;53294;47.912;13.526;2023-06-01T08:45:20;96155.63;;;22.21;47.41
66479;BME280;53294;47.912;13.526;2023-06-01T08:47:47;96150.97;;;22.55;45.57
66479;BME280;53294;47.912;13.526;2023-06-01T08:50:15;96154.66;;;22.70;43.12
66479;BME280;53294;47.912;13.526;2023-06-01T08:52:43;96149.78;;;22.94;44.41
66479;BME280;53294;47.912;13.526;2023-06-01T08:55:09;96149.25;;;23.15;44.62
66479;BME280;53294;47.912;13.526;2023-06-01T08:57:37;96144.81;;;23.52;44.05
66479;BME280;53294;47.912;13.526;2023-06-01T09:00:07;96142.78;;;23.93;44.23
66479;BME280;53294;47.912;13.526;2023-06-01T09:02:34;96144.56;;;24.48;42.84
66479;BME280;53294;47.912;13.526;2023-06-01T09:05:01;96130.56;;;24.82;41.44
66479;BME280;53294;47.912;13.526;2023-06-01T09:07:28;96132.97;;;25.16;42.09
66479;BME280;53294;47.912;13.526;2023-06-01T09:09:56;96127.88;;;25.40;42.72
66479;BME280;53294;47.912;13.526;2023-06-01T09:12:29;96125.94;;;25.51;42.99
66479;BME280;53294;47.912;13.526;2023-06-01T09:15:09;96120.41;;;25.66;40.33
66479;BME280;53294;47.912;13.526;2023-06-01T09:17:36;96117.97;;;26.00;39.88
66479;BME280;53294;47.912;13.526;2023-06-01T09:20:03;96122.31;;;25.90;39.70
66479;BME280;53294;47.912;13.526;2023-06-01T09:22:43;96114.41;;;26.14;40.49
66479;BME280;53294;47.912;13.526;2023-06-01T09:25:11;96109.09;;;26.52;41.34
66479;BME280;53294;47.912;13.526;2023-06-01T09:27:43;96109.84;;;26.63;39.87
66479;BME280;53294;47.912;13.526;2023-06-01T09:30:10;96101.81;;;26.91;39.34
66479;BME280;53294;47.912;13.526;2023-06-01T09:32:37;96104.06;;;27.10;37.92
66479;BME280;53294;47.912;13.526;2023-06-01T09:35:04;96105.59;;;27.11;38.00
66479;BME280;53294;47.912;13.526;2023-06-01T09:37:34;96101.34;;;27.03;36.80
66479;BME280;53294;47.912;13.526;2023-06-01T09:40:01;96098.06;;;27.19;37.89
66479;BME280;53294;47.912;13.526;2023-06-01T09:42:30;96103.81;;;27.43;37.02
66479;BME280;53294;47.912;13.526;2023-06-01T09:45:02;96095.63;;;27.28;37.02
66479;BME280;53294;47.912;13.526;2023-06-01T09:47:39;96092.28;;;27.55;37.50
66479;BME280;53294;47.912;13.526;2023-06-01T09:50:06;96085.56;;;27.56;36.50
66479;BME280;53294;47.912;13.526;2023-06-01T09:52:33;96092.03;;;27.38;35.56
66479;BME280;53294;47.912;13.526;2023-06-01T09:55:06;96089.44;;;27.62;35.33
66479;BME280;53294;47.912;13.526;2023-06-01T09:57:33;96089.22;;;27.84;36.60
66479;BME280;53294;47.912;13.526;2023-06-01T10:00:03;96082.66;;;27.70;35.37
66479;BME280;53294;47.912;13.526;2023-06-01T10:02:32;96086.69;;;28.00;35.49
66479;BME280;53294;47.912;13.526;2023-06-01T10:04:59;96082.53;;;28.19;33.39
66479;BME280;53294;47.912;13.526;2023-06-01T10:07:27;96075.25;;;28.33;35.41
66479;BME280;53294;47.912;13.526;2023-06-01T10:09:54;96073.47;;;28.50;34.39
66479;BME280;53294;47.912;13.526;2023-06-01T10:12:21;96075.13;;;28.43;33.15
66479;BME280;53294;47.912;13.526;2023-06-01T10:14:49;96075.22;;;28.36;33.38
66479;BME280;53294;47.912;13.526;2023-06-01T10:17:17;96075.75;;;28.55;34.51
66479;BME280;53294;47.912;13.526;2023-06-01T10:19:43;96072.22;;;28.81;35.03
66479;BME280;53294;47.912;13.526;2023-06-01T10:22:11;96068.88;;;28.94;32.79
66479;BME280;53294;47.912;13.526;2023-06-01T10:24:38;96066.69;;;28.81;33.76
66479;BME280;53294;47.912;13.526;2023-06-01T10:29:53;96063.78;;;29.20;30.92
66479;BME280;53294;47.912;13.526;2023-06-01T10:35:06;96061.75;;;29.44;32.70
66479;BME280;53294;47.912;13.526;2023-06-01T10:37:33;96052.81;;;29.36;32.52
66479;BME280;53294;47.912;13.526;2023-06-01T10:40:09;96061.81;;;29.40;33.12
66479;BME280;53294;47.912;13.526;2023-06-01T10:42:38;96055.84;;;29.65;32.13
66479;BME280;53294;47.912;13.526;2023-06-01T10:45:05;96063.50;;;29.78;32.05
66479;BME280;53294;47.912;13.526;2023-06-01T10:57:31;96042.66;;;30.13;31.67
66479;BME280;53294;47.912;13.526;2023-06-01T11:02:57;96043.78;;;30.16;30.71
66479;BME280;53294;47.912;13.526;2023-06-01T11:05:42;96035.19;;;30.30;29.68
66479;BME280;53294;47.912;13.526;2023-06-01T11:10:59;96038.22;;;29.99;27.99
66479;BME280;53294;47.912;13.526;2023-06-01T11:13:27;96035.44;;;29.99;28.80
66479;BME280;53294;47.912;13.526;2023-06-01T11:18:47;96022.91;;;30.11;30.08
66479;BME280;53294;47.912;13.526;2023-06-01T11:21:35;96027.44;;;30.21;29.09
66479;BME280;53294;47.912;13.526;2023-06-01T11:24:06;96017.31;;;30.51;29.17
66479;BME280;53294;47.912;13.526;2023-06-01T11:29:10;96015.84;;;30.47;28.57
66479;BME280;53294;47.912;13.526;2023-06-01T11:31:39;96010.75;;;30.61;28.44
66479;BME280;53294;47.912;13.526;2023-06-01T11:34:06;96016.50;;;30.71;29.65
66479;BME280;53294;47.912;13.526;2023-06-01T11:36:37;96009.19;;;30.93;28.86
66479;BME280;53294;47.912;13.526;2023-06-01T11:39:04;96002.81;;;31.13;28.33
66479;BME280;53294;47.912;13.526;2023-06-01T11:41:45;96005.75;;;31.22;28.75
66479;BME280;53294;47.912;13.526;2023-06-01T11:44:12;96004.19;;;31.21;28.96
66479;BME280;53294;47.912;13.526;2023-06-01T11:46:52;96003.81;;;31.36;28.78
66479;BME280;53294;47.912;13.526;2023-06-01T11:49:19;96001.06;;;31.65;28.14
66479;BME280;53294;47.912;13.526;2023-06-01T11:51:46;95992.94;;;31.87;27.79
66479;BME280;53294;47.912;13.526;2023-06-01T11:54:13;95995.44;;;31.68;26.89
66479;BME280;53294;47.912;13.526;2023-06-01T11:56:40;95990.22;;;31.71;28.47
66479;BME280;53294;47.912;13.526;2023-06-01T11:59:07;95990.03;;;31.91;28.16
66479;BME280;53294;47.912;13.526;2023-06-01T12:01:44;95986.50;;;31.90;27.60
66479;BME280;53294;47.912;13.526;2023-06-01T12:04:12;95978.81;;;31.94;27.31
66479;BME280;53294;47.912;13.526;2023-06-01T12:06:39;95974.56;;;32.19;27.45
66479;BME280;53294;47.912;13.526;2023-06-01T12:09:06;95977.63;;;32.08;26.32
66479;BME280;53294;47.912;13.526;2023-06-01T12:11:33;95979.00;;;32.16;26.42
66479;BME280;53294;47.912;13.526;2023-06-01T12:14:00;95981.34;;;32.44;25.99
66479;BME280;53294;47.912;13.526;2023-06-01T12:19:15;95967.97;;;32.90;25.40
66479;BME280;53294;47.912;13.526;2023-06-01T12:21:49;95968.44;;;32.88;24.83
66479;BME280;53294;47.912;13.526;2023-06-01T12:24:18;95972.56;;;32.84;25.72
66479;BME280;53294;47.912;13.526;2023-06-01T12:26:44;95968.28;;;32.92;27.19
66479;BME280;53294;47.912;13.526;2023-06-01T12:29:11;95960.13;;;33.10;25.05
66479;BME280;53294;47.912;13.526;2023-06-01T12:31:38;95954.16;;;33.34;24.16
66479;BME280;53294;47.912;13.526;2023-06-01T12:34:14;95960.00;;;33.27;24.40
66479;BME280;53294;47.912;13.526;2023-06-01T12:36:41;95951.88;;;33.55;24.89
66479;BME280;53294;47.912;13.526;2023-06-01T12:39:08;95954.66;;;33.55;23.24
66479;BME280;53294;47.912;13.526;2023-06-01T12:41:34;95943.00;;;33.69;23.58
66479;BME280;53294;47.912;13.526;2023-06-01T12:44:01;95941.50;;;33.77;22.87
66479;BME280;53294;47.912;13.526;2023-06-01T12:46:29;95942.81;;;33.86;23.12
66479;BME280;53294;47.912;13.526;2023-06-01T12:49:11;95937.97;;;34.08;23.62
66479;BME280;53294;47.912;13.526;2023-06-01T12:51:38;95929.91;;;34.10;22.55
66479;BME280;53294;47.912;13.526;2023-06-01T12:54:05;95931.59;;;34.30;22.06
66479;BME280;53294;47.912;13.526;2023-06-01T12:56:32;95931.59;;;34.30;23.18
66479;BME280;53294;47.912;13.526;2023-06-01T12:59:01;95930.50;;;34.37;22.19
66479;BME280;53294;47.912;13.526;2023-06-01T13:01:28;95920.97;;;34.47;22.28
66479;BME280;53294;47.912;13.526;2023-06-01T13:03:55;95923.53;;;34.32;22.74
66479;BME280;53294;47.912;13.526;2023-06-01T13:06:22;95919.78;;;34.26;22.33
66479;BME280;53294;47.912;13.526;2023-06-01T13:08:49;95910.16;;;34.17;22.46
66479;BME280;53294;47.912;13.526;2023-06-01T13:11:15;95914.47;;;34.09;22.22
66479;BME280;53294;47.912;13.526;2023-06-01T13:13:43;95918.97;;;34.16;23.73
66479;BME280;53294;47.912;13.526;2023-06-01T13:16:12;95901.66;;;33.90;22.87
66479;BME280;53294;47.912;13.526;2023-06-01T13:18:40;95900.44;;;33.91;23.28
66479;BME280;53294;47.912;13.526;2023-06-01T13:21:07;95904.69;;;34.05;23.24
66479;BME280;53294;47.912;13.526;2023-06-01T13:23:34;95899.00;;;34.17;22.02
66479;BME280;53294;47.912;13.526;2023-06-01T13:26:00;95889.19;;;34.35;22.76
66479;BME280;53294;47.912;13.526;2023-06-01T13:28:27;95890.03;;;34.54;21.37
66479;BME280;53294;47.912;13.526;2023-06-01T13:30:54;95890.88;;;34.32;22.12
66479;BME280;53294;47.912;13.526;2023-06-01T13:33:21;95886.25;;;34.29;21.27